createdAt,value
2023-04-26T00:00:50.195Z,97.1850
2023-04-26T00:01:51.434Z,97.1929
2023-04-26T00:02:51.374Z,97.2016
2023-04-26T00:03:52.626Z,97.2362
2023-04-26T00:04:53.985Z,97.2674
2023-04-26T00:05:55.039Z,97.2816
2023-04-26T00:06:55.858Z,97.2933
2023-04-26T00:07:56.513Z,97.2955
2023-04-26T00:08:57.150Z,97.2564
2023-04-26T00:09:57.924Z,97.2254
2023-04-26T00:10:58.543Z,97.2070
2023-04-26T00:11:59.199Z,97.1606
2023-04-26T00:13:00.147Z,97.1257
2023-04-26T00:14:00.738Z,97.1212
2023-04-26T00:15:01.820Z,97.1383
2023-04-26T00:16:02.595Z,97.1432
2023-04-26T00:17:03.507Z,97.1432
2023-04-26T00:18:04.317Z,97.1393
2023-04-26T00:19:05.819Z,97.1038
2023-04-26T00:20:06.433Z,97.0937
2023-04-26T00:21:07.131Z,97.0759
2023-04-26T00:22:07.647Z,97.0502
2023-04-26T00:23:08.443Z,97.0366
2023-04-26T00:24:09.294Z,97.0366
2023-04-26T00:25:09.806Z,97.0445
2023-04-26T00:26:10.676Z,97.0593
2023-04-26T00:27:11.000Z,97.0972
2023-04-26T00:28:11.454Z,97.1258
2023-04-26T00:29:12.328Z,97.0885
2023-04-26T00:31:13.032Z,97.0319
2023-04-26T00:32:13.688Z,97.0315
2023-04-26T00:33:14.839Z,97.0544
2023-04-26T00:34:15.322Z,97.0521
2023-04-26T00:35:16.100Z,97.0385
2023-04-26T00:36:16.837Z,96.9906
2023-04-26T00:37:17.271Z,96.8524
2023-04-26T00:38:18.602Z,96.7400
2023-04-26T00:39:19.505Z,96.7010
2023-04-26T00:40:19.731Z,96.7439
2023-04-26T00:41:19.800Z,96.7469
2023-04-26T00:42:21.493Z,96.7764
2023-04-26T00:43:21.871Z,96.8139
2023-04-26T00:44:24.422Z,96.8311
2023-04-26T00:46:24.728Z,96.8734
2023-04-26T00:47:25.405Z,96.9123
2023-04-26T00:48:26.205Z,96.9392
2023-04-26T00:49:26.723Z,96.9632
2023-04-26T00:50:27.526Z,96.9959
2023-04-26T00:51:28.138Z,97.0034
2023-04-26T00:52:28.870Z,97.0083
2023-04-26T00:53:29.664Z,96.9960
2023-04-26T00:54:30.211Z,97.0070
2023-04-26T00:55:32.310Z,96.9617
2023-04-26T00:57:32.175Z,96.9542
2023-04-26T00:58:32.310Z,96.8526
2023-04-26T00:59:35.110Z,96.7077
2023-04-26T01:00:35.601Z,96.6237
2023-04-26T01:01:36.130Z,96.5845
2023-04-26T01:02:36.745Z,96.6249
2023-04-26T01:03:37.505Z,96.6872
2023-04-26T01:04:38.158Z,96.7487
2023-04-26T01:05:39.867Z,96.8065
2023-04-26T01:06:39.835Z,96.8383
2023-04-26T01:07:40.433Z,96.8642
2023-04-26T01:08:41.095Z,96.8907
2023-04-26T01:09:41.929Z,96.9066
2023-04-26T01:10:42.752Z,96.9242
2023-04-26T01:11:43.608Z,96.9402
2023-04-26T01:12:44.296Z,96.9549
2023-04-26T01:13:44.879Z,96.9675
2023-04-26T01:14:45.253Z,96.9909
2023-04-26T01:15:45.991Z,97.0365
2023-04-26T01:16:47.128Z,97.0797
2023-04-26T01:17:48.321Z,97.1046
2023-04-26T01:18:49.221Z,97.1112
2023-04-26T01:19:48.687Z,97.1026
2023-04-26T01:20:48.659Z,97.1077
2023-04-26T01:21:52.254Z,97.0833
2023-04-26T01:22:52.349Z,96.9927
2023-04-26T01:23:52.599Z,96.9373
2023-04-26T01:24:52.844Z,96.9240
2023-04-26T01:25:53.557Z,96.9445
2023-04-26T01:26:53.840Z,96.9602
2023-04-26T01:27:54.335Z,96.9715
2023-04-26T01:29:54.657Z,96.9517
2023-04-26T01:30:55.473Z,96.9255
2023-04-26T01:31:56.408Z,96.9088
2023-04-26T01:32:57.206Z,96.9163
2023-04-26T01:33:57.985Z,96.8858
2023-04-26T01:34:58.654Z,96.9017
2023-04-26T01:35:59.392Z,96.9072
2023-04-26T01:37:00.302Z,96.9053
2023-04-26T01:38:00.851Z,96.8745
2023-04-26T01:39:01.528Z,96.8358
2023-04-26T01:40:02.327Z,96.8269
2023-04-26T01:41:02.912Z,96.8201
2023-04-26T01:42:03.721Z,96.8380
2023-04-26T01:43:04.330Z,96.8450
2023-04-26T01:44:05.312Z,96.8295
2023-04-26T01:45:06.117Z,96.8282
2023-04-26T01:46:06.871Z,96.8026
2023-04-26T01:47:07.080Z,96.8067
2023-04-26T01:48:08.124Z,96.8071
2023-04-26T01:49:08.392Z,96.8130
2023-04-26T01:50:08.630Z,96.7949
2023-04-26T01:51:10.344Z,96.7823
2023-04-26T01:52:09.944Z,96.7760
2023-04-26T01:53:10.649Z,96.7970
2023-04-26T01:54:11.480Z,96.8170
2023-04-26T01:55:12.271Z,96.8699
2023-04-26T01:56:12.975Z,96.9237
2023-04-26T01:57:13.692Z,96.9423
2023-04-26T01:58:14.214Z,96.9575
2023-04-26T01:59:15.381Z,96.9875
2023-04-26T02:00:15.968Z,97.0233
2023-04-26T02:01:16.619Z,97.0178
2023-04-26T02:02:17.676Z,97.0116
2023-04-26T02:03:17.917Z,97.0393
2023-04-26T02:04:18.732Z,97.0637
2023-04-26T02:05:19.534Z,97.0681
2023-04-26T02:06:20.637Z,97.0963
2023-04-26T02:07:21.423Z,97.1206
2023-04-26T02:08:22.145Z,97.1421
2023-04-26T02:09:23.218Z,97.1854
2023-04-26T02:10:24.027Z,97.2457
2023-04-26T02:11:24.494Z,97.2973
2023-04-26T02:12:25.695Z,97.3336
2023-04-26T02:13:26.807Z,97.3765
2023-04-26T02:14:26.500Z,97.4136
2023-04-26T02:15:27.201Z,97.4532
2023-04-26T02:16:28.703Z,97.4771
2023-04-26T02:17:29.634Z,97.5012
2023-04-26T02:18:30.924Z,97.5023
2023-04-26T02:19:31.379Z,97.4995
2023-04-26T02:20:32.026Z,97.4981
2023-04-26T02:21:32.343Z,97.4834
2023-04-26T02:22:33.051Z,97.4963
2023-04-26T02:23:33.740Z,97.5375
2023-04-26T02:24:34.239Z,97.5481
2023-04-26T02:25:35.418Z,97.5551
2023-04-26T02:26:35.344Z,97.5667
2023-04-26T02:27:36.670Z,97.6095
2023-04-26T02:28:37.560Z,97.6383
2023-04-26T02:30:38.498Z,97.6627
2023-04-26T02:31:39.520Z,97.6550
2023-04-26T02:32:39.648Z,97.6526
2023-04-26T02:33:40.213Z,97.6507
2023-04-26T02:34:41.082Z,97.6463
2023-04-26T02:35:41.085Z,97.6497
2023-04-26T02:36:41.629Z,97.6526
2023-04-26T02:37:42.108Z,97.6543
2023-04-26T02:38:42.568Z,97.6555
2023-04-26T02:39:43.664Z,97.6435
2023-04-26T02:40:45.020Z,97.6622
2023-04-26T02:41:49.112Z,97.6707
2023-04-26T02:43:48.401Z,97.6625
2023-04-26T02:44:49.074Z,97.6780
2023-04-26T02:45:49.788Z,97.7172
2023-04-26T02:46:50.372Z,97.7726
2023-04-26T02:47:51.675Z,97.8319
2023-04-26T02:48:51.947Z,97.8791
2023-04-26T02:49:53.609Z,97.9281
2023-04-26T02:51:55.798Z,97.9864
2023-04-26T02:53:55.708Z,98.0308
2023-04-26T02:54:57.125Z,98.0497
2023-04-26T02:56:08.052Z,98.0636
2023-04-26T02:57:09.240Z,98.0855
2023-04-26T02:58:10.464Z,98.1111
2023-04-26T02:59:11.278Z,98.1343
2023-04-26T03:01:14.476Z,98.1691
2023-04-26T03:02:15.937Z,98.1997
2023-04-26T03:04:16.127Z,98.2319
2023-04-26T03:05:15.777Z,98.2366
2023-04-26T03:06:17.069Z,98.2420
2023-04-26T03:07:17.804Z,98.2464
2023-04-26T03:08:19.079Z,98.2486
2023-04-26T03:09:19.636Z,98.2505
2023-04-26T03:10:20.430Z,98.2576
2023-04-26T03:11:21.145Z,98.2706
2023-04-26T03:12:21.783Z,98.2783
2023-04-26T03:13:22.657Z,98.3004
2023-04-26T03:14:23.419Z,98.3144
2023-04-26T03:15:24.150Z,98.3322
2023-04-26T03:16:25.070Z,98.3559
2023-04-26T03:17:26.225Z,98.3727
2023-04-26T03:18:26.420Z,98.3893
2023-04-26T03:19:27.404Z,98.4064
2023-04-26T03:20:28.519Z,98.4260
2023-04-26T03:21:29.372Z,98.4326
2023-04-26T03:22:29.862Z,98.4473
2023-04-26T03:23:30.723Z,98.4510
2023-04-26T03:24:31.167Z,98.4583
2023-04-26T03:25:32.966Z,98.4589
2023-04-26T03:26:33.236Z,98.4608
2023-04-26T03:27:33.181Z,98.4642
2023-04-26T03:28:33.236Z,98.4673
2023-04-26T03:29:33.768Z,98.4741
2023-04-26T03:30:34.480Z,98.4794
2023-04-26T03:31:35.207Z,98.4913
2023-04-26T03:32:35.247Z,98.5035
2023-04-26T03:33:35.913Z,98.5109
2023-04-26T03:34:36.860Z,98.5209
2023-04-26T03:35:37.722Z,98.5326
2023-04-26T03:36:38.431Z,98.5445
2023-04-26T03:37:39.132Z,98.5509
2023-04-26T03:38:39.225Z,98.5502
2023-04-26T03:39:39.985Z,98.5517
2023-04-26T03:40:40.842Z,98.5503
2023-04-26T03:41:41.742Z,98.5490
2023-04-26T03:42:42.735Z,98.5499
2023-04-26T03:43:43.753Z,98.5538
2023-04-26T03:44:44.765Z,98.5637
2023-04-26T03:46:46.332Z,98.5789
2023-04-26T03:47:47.585Z,98.5753
2023-04-26T03:51:09.841Z,98.5957
2023-04-26T03:51:49.544Z,98.5853
2023-04-26T03:52:50.360Z,98.5891
2023-04-26T03:53:50.661Z,98.5826
2023-04-26T03:55:10.892Z,98.5687
2023-04-26T03:55:51.638Z,98.5612
2023-04-26T03:56:51.550Z,98.5470
2023-04-26T03:57:52.393Z,98.5361
2023-04-26T03:58:53.794Z,98.5304
2023-04-26T03:59:55.121Z,98.5318
2023-04-26T04:01:55.839Z,98.5536
2023-04-26T04:02:56.152Z,98.5738
2023-04-26T04:03:56.724Z,98.5903
2023-04-26T04:06:57.850Z,98.6391
2023-04-26T04:07:57.640Z,98.6608
2023-04-26T04:08:58.933Z,98.6712
2023-04-26T04:10:00.677Z,98.6831
2023-04-26T04:11:00.216Z,98.6859
2023-04-26T04:12:01.344Z,98.6987
2023-04-26T04:13:02.399Z,98.7092
2023-04-26T04:14:02.635Z,98.7299
2023-04-26T04:15:03.096Z,98.7391
2023-04-26T04:16:05.169Z,98.7535
2023-04-26T04:17:04.352Z,98.7647
2023-04-26T04:18:06.196Z,98.7744
2023-04-26T04:19:07.452Z,98.7829
2023-04-26T04:20:07.036Z,98.7944
2023-04-26T04:21:07.790Z,98.8145
2023-04-26T04:22:08.514Z,98.8202
2023-04-26T04:23:09.280Z,98.8295
2023-04-26T04:24:10.633Z,98.8342
2023-04-26T04:25:11.746Z,98.8484
2023-04-26T04:26:12.361Z,98.8544
2023-04-26T04:27:12.993Z,98.8723
2023-04-26T04:28:13.245Z,98.8819
2023-04-26T04:29:14.890Z,98.8992
2023-04-26T04:31:15.815Z,98.9177
2023-04-26T04:32:16.539Z,98.9250
2023-04-26T04:33:16.718Z,98.9381
2023-04-26T04:34:17.845Z,98.9389
2023-04-26T04:36:18.474Z,98.9568
2023-04-26T04:37:18.832Z,98.9642
2023-04-26T04:38:20.064Z,98.9748
2023-04-26T04:39:21.007Z,98.9775
2023-04-26T04:40:21.340Z,98.9858
2023-04-26T04:41:43.477Z,98.9913
2023-04-26T04:42:21.882Z,99.0055
2023-04-26T04:43:23.459Z,99.0092
2023-04-26T04:44:24.559Z,99.0089
2023-04-26T04:45:25.098Z,99.0185
2023-04-26T04:46:25.900Z,99.0186
2023-04-26T04:47:28.514Z,99.0225
2023-04-26T04:50:29.404Z,99.0358
2023-04-26T04:52:28.822Z,99.0335
2023-04-26T04:53:29.388Z,99.0260
2023-04-26T04:54:31.138Z,99.0329
2023-04-26T04:55:30.823Z,99.0271
2023-04-26T04:56:32.046Z,99.0244
2023-04-26T04:58:32.395Z,99.0182
2023-04-26T04:59:33.364Z,99.0150
2023-04-26T05:00:35.026Z,99.0124
2023-04-26T05:01:36.184Z,99.0038
2023-04-26T05:02:36.568Z,99.0068
2023-04-26T05:03:38.000Z,98.9966
2023-04-26T05:04:38.226Z,98.9989
2023-04-26T05:05:38.344Z,98.9955
2023-04-26T05:06:39.380Z,99.0032
2023-04-26T05:07:40.026Z,98.9905
2023-04-26T05:08:41.169Z,98.9923
2023-04-26T05:09:42.735Z,98.9845
2023-04-26T05:10:42.872Z,98.9828
2023-04-26T05:11:43.988Z,98.9733
2023-04-26T05:19:53.371Z,98.8780
2023-04-26T05:20:54.137Z,98.8641
2023-04-26T05:21:55.349Z,98.8485
2023-04-26T05:22:56.022Z,98.8458
2023-04-26T05:23:56.226Z,98.8335
2023-04-26T05:24:57.285Z,98.8126
2023-04-26T05:25:57.929Z,98.7913
2023-04-26T05:26:58.636Z,98.7669
2023-04-26T05:27:59.198Z,98.7669
2023-04-26T05:29:00.121Z,98.7505
2023-04-26T05:30:00.811Z,98.7459
2023-04-26T05:31:01.995Z,98.7402
2023-04-26T05:32:03.244Z,98.7270
2023-04-26T05:33:03.264Z,98.7289
2023-04-26T05:34:03.910Z,98.7158
2023-04-26T05:35:04.505Z,98.7093
2023-04-26T05:36:04.851Z,98.7147
2023-04-26T05:37:05.281Z,98.7120
2023-04-26T05:38:06.042Z,98.7058
2023-04-26T05:39:06.618Z,98.6870
2023-04-26T05:40:07.633Z,98.6617
2023-04-26T05:41:08.322Z,98.6390
2023-04-26T05:42:08.661Z,98.5988
2023-04-26T05:43:09.702Z,98.5542
2023-04-26T05:44:10.279Z,98.5249
2023-04-26T05:45:10.997Z,98.5147
2023-04-26T05:46:12.149Z,98.5056
2023-04-26T05:47:13.428Z,98.4746
2023-04-26T05:48:14.266Z,98.4771
2023-04-26T05:49:14.964Z,98.4688
2023-04-26T05:50:15.549Z,98.4492
2023-04-26T05:51:16.682Z,98.4409
2023-04-26T05:52:17.321Z,98.4027
2023-04-26T05:53:17.808Z,98.3658
2023-04-26T05:54:18.198Z,98.3232
2023-04-26T05:55:18.874Z,98.2793
2023-04-26T05:56:19.549Z,98.2020
2023-04-26T05:57:19.782Z,98.1274
2023-04-26T05:58:20.341Z,98.0619
2023-04-26T05:59:21.175Z,98.0061
2023-04-26T06:00:21.906Z,97.9875
2023-04-26T06:01:22.714Z,98.0030
2023-04-26T06:02:24.217Z,97.9880
2023-04-26T06:03:24.265Z,97.9329
2023-04-26T06:04:25.156Z,97.8332
2023-04-26T06:05:25.178Z,97.7396
2023-04-26T06:06:25.851Z,97.6333
2023-04-26T06:07:26.465Z,97.5160
2023-04-26T06:08:27.077Z,97.4383
2023-04-26T06:09:27.238Z,97.3843
2023-04-26T06:10:28.036Z,97.4083
2023-04-26T06:11:28.757Z,97.4668
2023-04-26T06:12:29.513Z,97.5655
2023-04-26T06:13:30.237Z,97.6570
2023-04-26T06:14:31.119Z,97.6985
2023-04-26T06:15:32.163Z,97.6726
2023-04-26T06:16:32.942Z,97.5320
2023-04-26T06:17:34.155Z,97.3403
2023-04-26T06:18:35.165Z,97.2016
2023-04-26T06:19:35.721Z,97.1038
2023-04-26T06:20:36.494Z,97.0310
2023-04-26T06:21:37.319Z,96.9655
2023-04-26T06:22:37.981Z,96.9560
2023-04-26T06:23:39.215Z,96.9811
2023-04-26T06:24:39.798Z,96.9180
2023-04-26T06:25:40.607Z,96.7964
2023-04-26T06:26:41.530Z,96.7269
2023-04-26T06:27:42.153Z,96.6965
2023-04-26T06:28:42.896Z,96.6964
2023-04-26T06:29:43.728Z,96.6998
2023-04-26T06:30:44.637Z,96.6381
2023-04-26T06:31:45.633Z,96.4969
2023-04-26T06:32:46.762Z,96.5043
2023-04-26T06:33:47.419Z,96.6756
2023-04-26T06:34:48.607Z,96.7265
2023-04-26T06:35:49.107Z,96.7267
2023-04-26T06:36:49.760Z,96.6345
2023-04-26T06:37:50.939Z,96.4639
2023-04-26T06:38:51.520Z,96.3665
2023-04-26T06:39:52.329Z,96.2991
2023-04-26T06:40:53.206Z,96.2218
2023-04-26T06:41:53.757Z,96.1082
2023-04-26T06:42:54.476Z,96.0504
2023-04-26T06:43:55.412Z,96.1420
2023-04-26T06:44:55.232Z,96.2786
2023-04-26T06:45:55.203Z,96.1544
2023-04-26T06:46:56.032Z,95.7492
2023-04-26T06:47:57.191Z,95.4489
2023-04-26T06:48:57.984Z,95.1662
2023-04-26T06:49:58.639Z,95.3022
2023-04-26T06:50:59.298Z,95.3369
2023-04-26T06:51:59.936Z,95.1635
2023-04-26T06:53:01.185Z,95.2110
2023-04-26T06:54:01.914Z,95.0891
2023-04-26T06:55:03.427Z,94.9157
2023-04-26T06:56:04.019Z,94.9937
2023-04-26T06:57:04.634Z,95.0019
2023-04-26T06:58:05.130Z,95.1477
2023-04-26T06:59:05.838Z,95.4798
2023-04-26T07:00:06.563Z,95.5864
2023-04-26T07:01:07.033Z,95.3695
2023-04-26T07:02:08.136Z,94.8352
2023-04-26T07:03:08.707Z,94.1842
2023-04-26T07:04:09.964Z,94.3117
2023-04-26T07:05:11.019Z,94.3621
2023-04-26T07:06:12.252Z,94.5630
2023-04-26T07:07:13.762Z,94.7121
2023-04-26T07:08:13.420Z,94.7935
2023-04-26T07:09:14.100Z,94.5708
2023-04-26T07:10:14.796Z,94.3325
2023-04-26T07:11:15.473Z,94.0374
2023-04-26T07:12:16.464Z,93.6797
2023-04-26T07:13:17.090Z,93.2015
2023-04-26T07:14:17.764Z,93.2033
2023-04-26T07:15:18.731Z,93.0783
2023-04-26T07:16:19.483Z,93.5106
2023-04-26T07:17:20.418Z,93.6752
2023-04-26T07:18:21.276Z,93.8267
2023-04-26T07:19:21.935Z,93.1026
2023-04-26T07:20:22.498Z,93.1111
2023-04-26T07:21:23.231Z,92.9418
2023-04-26T07:22:23.855Z,92.9017
2023-04-26T07:23:24.580Z,92.7440
2023-04-26T07:24:25.297Z,92.8558
2023-04-26T07:25:25.747Z,92.2790
2023-04-26T07:26:26.658Z,91.5930
2023-04-26T07:27:26.403Z,91.6983
2023-04-26T07:28:26.877Z,92.1092
2023-04-26T07:29:27.614Z,92.5859
2023-04-26T07:30:28.459Z,92.6128
2023-04-26T07:31:28.786Z,92.2485
2023-04-26T07:32:29.740Z,92.1767
2023-04-26T07:33:31.662Z,92.6501
2023-04-26T07:34:31.931Z,92.4643
2023-04-26T07:35:32.901Z,92.0011
2023-04-26T07:36:33.299Z,91.9840
2023-04-26T07:37:33.775Z,91.5630
2023-04-26T07:38:34.359Z,92.2226
2023-04-26T07:39:34.815Z,92.7542
2023-04-26T07:40:35.770Z,92.3562
2023-04-26T07:41:36.683Z,91.9015
2023-04-26T07:42:37.834Z,92.5824
2023-04-26T07:43:38.633Z,92.8589
2023-04-26T07:44:39.081Z,93.0278
2023-04-26T07:45:39.819Z,92.2358
2023-04-26T07:46:40.885Z,91.2315
2023-04-26T07:47:41.374Z,91.0173
2023-04-26T07:48:42.125Z,91.0968
2023-04-26T07:49:42.677Z,90.7396
2023-04-26T07:50:43.309Z,90.8572
2023-04-26T07:51:44.082Z,90.3876
2023-04-26T07:52:44.534Z,90.4581
2023-04-26T07:53:45.188Z,90.7625
2023-04-26T07:54:45.442Z,91.0955
2023-04-26T07:55:45.927Z,90.4223
2023-04-26T07:56:46.682Z,91.0554
2023-04-26T07:57:47.193Z,91.0724
2023-04-26T07:58:47.881Z,90.7975
2023-04-26T07:59:48.660Z,90.2940
2023-04-26T08:00:49.116Z,89.2976
2023-04-26T08:01:49.852Z,88.5981
2023-04-26T08:02:50.947Z,88.9146
2023-04-26T08:03:51.381Z,89.3434
2023-04-26T08:04:52.463Z,89.3755
2023-04-26T08:05:53.369Z,89.3358
2023-04-26T08:06:53.328Z,89.4225
2023-04-26T08:07:53.868Z,88.9495
2023-04-26T08:08:54.585Z,88.9300
2023-04-26T08:09:55.507Z,89.2518
2023-04-26T08:10:56.042Z,89.7006
2023-04-26T08:11:56.895Z,89.9120
2023-04-26T08:12:57.632Z,90.1520
2023-04-26T08:13:57.892Z,90.8629
2023-04-26T08:14:58.509Z,90.8541
2023-04-26T08:15:59.437Z,90.0806
2023-04-26T08:17:00.269Z,90.0629
2023-04-26T08:18:00.476Z,90.1596
2023-04-26T08:19:01.422Z,89.2055
2023-04-26T08:20:02.203Z,88.4505
2023-04-26T08:21:02.807Z,88.0433
2023-04-26T08:22:03.438Z,88.0700
2023-04-26T08:23:04.169Z,87.9498
2023-04-26T08:24:05.335Z,87.8955
2023-04-26T08:25:06.092Z,88.2633
2023-04-26T08:26:06.796Z,87.7898
2023-04-26T08:27:07.350Z,88.2033
2023-04-26T08:28:08.132Z,88.6229
2023-04-26T08:29:08.812Z,89.1492
2023-04-26T08:30:09.702Z,89.4827
2023-04-26T08:31:09.948Z,89.4319
2023-04-26T08:32:10.843Z,89.5049
2023-04-26T08:33:11.908Z,88.6842
2023-04-26T08:34:12.656Z,88.5338
2023-04-26T08:35:13.164Z,88.7904
2023-04-26T08:36:13.821Z,89.1079
2023-04-26T08:37:14.261Z,88.4430
2023-04-26T08:38:14.915Z,88.4846
2023-04-26T08:39:15.675Z,88.4270
2023-04-26T08:40:16.338Z,87.8166
2023-04-26T08:41:17.057Z,87.8404
2023-04-26T08:42:17.730Z,87.6506
2023-04-26T08:43:18.367Z,88.2533
2023-04-26T08:44:19.062Z,87.7686
2023-04-26T08:45:19.551Z,87.7539
2023-04-26T08:46:20.272Z,87.8566
2023-04-26T08:47:21.133Z,87.6643
2023-04-26T08:48:22.344Z,87.1359
2023-04-26T08:49:23.042Z,86.6826
2023-04-26T08:50:23.811Z,87.2311
2023-04-26T08:51:24.364Z,86.7478
2023-04-26T08:52:24.725Z,87.3556
2023-04-26T08:53:25.270Z,86.6360
2023-04-26T08:54:26.042Z,86.8118
2023-04-26T08:55:26.677Z,86.8885
2023-04-26T08:56:27.138Z,87.3576
2023-04-26T08:57:27.879Z,87.5348
2023-04-26T08:58:28.573Z,86.7551
2023-04-26T08:59:29.039Z,86.7253
2023-04-26T09:00:29.772Z,86.6149
2023-04-26T09:01:30.337Z,86.4380
2023-04-26T09:02:31.102Z,86.6121
2023-04-26T09:03:31.658Z,86.3139
2023-04-26T09:04:32.503Z,86.1767
2023-04-26T09:05:33.268Z,86.3297
2023-04-26T09:06:34.258Z,86.1739
2023-04-26T09:07:34.944Z,85.5854
2023-04-26T09:08:35.627Z,85.0282
2023-04-26T09:09:36.615Z,84.7089
2023-04-26T09:10:37.427Z,84.3954
2023-04-26T09:11:38.128Z,84.4189
2023-04-26T09:12:38.696Z,84.3253
2023-04-26T09:13:39.452Z,84.0667
2023-04-26T09:14:39.985Z,84.3118
2023-04-26T09:15:40.810Z,83.7140
2023-04-26T09:16:42.031Z,83.7808
2023-04-26T09:17:42.864Z,83.2849
2023-04-26T09:18:44.152Z,82.8518
2023-04-26T09:19:44.933Z,82.8245
2023-04-26T09:20:45.271Z,82.1205
2023-04-26T09:21:45.993Z,82.2228
2023-04-26T09:22:46.701Z,82.5649
2023-04-26T09:23:47.279Z,82.3322
2023-04-26T09:24:48.035Z,82.7734
2023-04-26T09:25:48.579Z,82.5522
2023-04-26T09:26:49.326Z,81.8793
2023-04-26T09:27:49.966Z,82.0380
2023-04-26T09:28:50.663Z,81.2275
2023-04-26T09:29:51.027Z,81.5922
2023-04-26T09:30:51.512Z,81.5836
2023-04-26T09:31:52.943Z,81.6288
2023-04-26T09:32:53.834Z,81.4317
2023-04-26T09:33:54.903Z,82.8907
2023-04-26T09:34:55.530Z,81.8601
2023-04-26T09:35:56.142Z,80.7232
2023-04-26T09:36:56.625Z,79.2550
2023-04-26T09:38:01.123Z,77.2862
2023-04-26T09:38:58.552Z,78.4091
2023-04-26T09:39:59.247Z,79.4528
2023-04-26T09:40:59.967Z,79.5122
2023-04-26T09:42:00.446Z,79.1550
2023-04-26T09:43:01.162Z,79.0151
2023-04-26T09:44:01.997Z,78.8894
2023-04-26T09:45:02.651Z,78.8411
2023-04-26T09:46:03.384Z,78.3137
2023-04-26T09:47:04.382Z,77.7213
2023-04-26T09:48:04.306Z,77.8676
2023-04-26T09:49:04.453Z,79.8745
2023-04-26T09:50:05.137Z,79.3356
2023-04-26T09:51:05.901Z,79.4746
2023-04-26T09:52:06.606Z,78.7046
2023-04-26T09:53:07.083Z,78.7338
2023-04-26T09:54:07.740Z,77.9192
2023-04-26T09:55:09.177Z,77.7140
2023-04-26T09:56:08.556Z,77.8535
2023-04-26T09:57:09.450Z,79.1486
2023-04-26T09:58:09.953Z,78.5255
2023-04-26T09:59:10.171Z,78.9874
2023-04-26T10:00:10.806Z,79.2000
2023-04-26T10:01:11.458Z,79.1034
2023-04-26T10:02:12.368Z,79.1244
2023-04-26T10:03:14.173Z,79.1553
2023-04-26T10:04:14.545Z,78.4876
2023-04-26T10:05:15.506Z,78.5158
2023-04-26T10:06:16.181Z,78.4244
2023-04-26T10:07:16.638Z,78.1164
2023-04-26T10:08:17.388Z,78.1352
2023-04-26T10:09:18.500Z,77.4204
2023-04-26T10:10:19.273Z,77.6420
2023-04-26T10:11:20.025Z,77.2888
2023-04-26T10:12:20.763Z,76.6997
2023-04-26T10:13:21.434Z,76.9812
2023-04-26T10:14:22.187Z,77.2598
2023-04-26T10:15:22.752Z,77.0711
2023-04-26T10:16:23.510Z,75.9747
2023-04-26T10:17:24.354Z,75.9734
2023-04-26T10:18:25.156Z,76.4699
2023-04-26T10:19:25.986Z,75.8067
2023-04-26T10:20:26.689Z,75.4304
2023-04-26T10:21:27.438Z,75.3020
2023-04-26T10:22:28.082Z,74.5163
2023-04-26T10:23:28.588Z,73.0618
2023-04-26T10:24:29.433Z,73.9241
2023-04-26T10:25:29.990Z,74.9510
2023-04-26T10:26:30.667Z,74.9660
2023-04-26T10:27:31.393Z,75.1791
2023-04-26T10:28:32.001Z,73.3799
2023-04-26T10:29:32.635Z,73.8357
2023-04-26T10:30:33.401Z,73.9709
2023-04-26T10:31:34.152Z,73.9386
2023-04-26T10:32:35.162Z,76.5484
2023-04-26T10:33:36.479Z,75.0214
2023-04-26T10:34:37.064Z,72.3856
2023-04-26T10:35:37.924Z,71.9299
2023-04-26T10:36:38.387Z,71.3979
2023-04-26T10:37:39.004Z,72.2963
2023-04-26T10:38:39.960Z,73.3610
2023-04-26T10:40:45.821Z,74.7583
2023-04-26T10:41:46.796Z,71.5244
2023-04-26T10:42:47.786Z,68.1319
2023-04-26T10:43:48.507Z,66.9518
2023-04-26T10:44:49.623Z,65.0980
2023-04-26T10:45:50.407Z,66.7528
2023-04-26T10:47:51.131Z,67.6656
2023-04-26T10:48:52.088Z,68.7120
2023-04-26T10:49:52.250Z,69.0818
2023-04-26T10:50:52.882Z,67.9379
2023-04-26T10:51:53.585Z,66.2434
2023-04-26T10:52:54.128Z,64.7510
2023-04-26T10:53:55.570Z,64.2475
2023-04-26T10:54:55.467Z,64.7055
2023-04-26T10:55:56.088Z,67.1226
2023-04-26T10:56:56.785Z,64.8247
2023-04-26T10:57:57.610Z,63.7068
2023-04-26T10:58:58.237Z,66.7165
2023-04-26T10:59:59.064Z,65.1520
2023-04-26T11:01:00.091Z,63.9261
2023-04-26T11:02:00.151Z,61.4985
2023-04-26T11:03:01.301Z,61.4693
2023-04-26T11:04:02.537Z,60.5760
2023-04-26T11:05:03.578Z,61.6904
2023-04-26T11:06:04.196Z,61.0183
2023-04-26T11:07:05.197Z,61.1970
2023-04-26T11:08:05.722Z,59.5149
2023-04-26T11:09:06.754Z,57.1496
2023-04-26T11:10:07.534Z,55.5580
2023-04-26T11:11:08.025Z,54.9756
2023-04-26T11:12:08.645Z,56.1038
2023-04-26T11:13:09.311Z,58.9993
2023-04-26T11:14:09.923Z,59.8835
2023-04-26T11:15:10.663Z,60.3832
2023-04-26T11:16:11.592Z,58.8819
2023-04-26T11:17:12.646Z,59.2767
2023-04-26T11:18:13.529Z,59.9978
2023-04-26T11:19:14.196Z,61.9778
2023-04-26T11:20:14.982Z,62.8951
2023-04-26T11:21:15.797Z,63.6113
2023-04-26T11:22:16.606Z,60.7690
2023-04-26T11:23:17.237Z,60.6434
2023-04-26T11:24:17.695Z,59.9130
2023-04-26T11:25:18.365Z,59.1634
2023-04-26T11:26:19.084Z,57.9809
2023-04-26T11:27:19.562Z,59.2252
2023-04-26T11:28:20.333Z,58.6489
2023-04-26T11:29:20.816Z,56.5604
2023-04-26T11:30:21.460Z,56.3467
2023-04-26T11:31:22.819Z,56.8771
2023-04-26T11:32:23.853Z,57.2562
2023-04-26T11:33:24.817Z,57.7824
2023-04-26T11:34:25.450Z,59.8489
2023-04-26T11:35:25.942Z,59.7702
2023-04-26T11:36:26.585Z,60.0031
2023-04-26T11:37:27.048Z,58.3628
2023-04-26T11:38:27.628Z,56.4385
2023-04-26T11:39:28.712Z,55.4745
2023-04-26T11:40:29.216Z,56.5488
2023-04-26T11:41:29.920Z,56.2143
2023-04-26T11:42:30.625Z,55.6073
2023-04-26T11:43:31.260Z,55.1249
2023-04-26T11:44:32.459Z,55.6173
2023-04-26T11:45:32.987Z,55.2089
2023-04-26T11:46:33.734Z,55.8599
2023-04-26T11:47:34.634Z,56.9229
2023-04-26T11:48:35.419Z,53.7441
2023-04-26T11:49:36.245Z,53.5492
2023-04-26T11:50:36.932Z,53.4237
2023-04-26T11:51:37.673Z,53.6052
2023-04-26T11:52:38.255Z,53.4212
2023-04-26T11:53:38.747Z,55.0416
2023-04-26T11:54:39.731Z,54.9678
2023-04-26T11:55:40.446Z,56.1355
2023-04-26T11:56:41.018Z,58.3340
2023-04-26T11:57:41.810Z,59.1048
2023-04-26T11:58:42.808Z,59.1806
2023-04-26T11:59:43.944Z,58.1121
2023-04-26T12:00:43.769Z,57.2500
2023-04-26T12:01:44.691Z,58.3577
2023-04-26T12:02:46.015Z,58.1095
2023-04-26T12:03:47.354Z,56.5995
2023-04-26T12:04:47.987Z,55.9988
2023-04-26T12:05:48.268Z,56.4613
2023-04-26T12:06:49.286Z,56.6740
2023-04-26T12:07:50.266Z,56.0845
2023-04-26T12:08:51.506Z,54.7981
2023-04-26T12:09:52.092Z,53.0873
2023-04-26T12:10:52.273Z,53.5260
2023-04-26T12:11:52.738Z,54.6103
2023-04-26T12:12:53.909Z,53.5013
2023-04-26T12:13:54.632Z,52.5378
2023-04-26T12:14:55.274Z,52.3536
2023-04-26T12:15:55.399Z,51.9549
2023-04-26T12:16:55.861Z,52.6860
2023-04-26T12:17:56.242Z,52.9624
2023-04-26T12:18:56.283Z,53.0409
2023-04-26T12:19:57.129Z,56.3395
2023-04-26T12:20:57.981Z,57.8642
2023-04-26T12:21:58.013Z,55.4703
2023-04-26T12:22:58.837Z,54.7232
2023-04-26T12:23:59.588Z,55.5460
2023-04-26T12:25:00.485Z,57.5754
2023-04-26T12:26:01.257Z,56.2444
2023-04-26T12:27:02.668Z,53.8333
2023-04-26T12:28:02.550Z,53.8039
2023-04-26T12:29:03.468Z,54.4461
2023-04-26T12:30:04.205Z,54.4289
2023-04-26T12:31:05.060Z,56.0060
2023-04-26T12:32:05.650Z,58.0693
2023-04-26T12:33:16.400Z,55.3896
2023-04-26T12:34:06.437Z,52.4220
2023-04-26T12:35:07.131Z,51.3318
2023-04-26T12:36:07.812Z,51.5622
2023-04-26T12:37:08.353Z,51.8344
2023-04-26T12:38:09.003Z,52.0087
2023-04-26T12:39:09.487Z,51.8138
2023-04-26T12:40:09.584Z,51.2793
2023-04-26T12:41:10.260Z,50.7989
2023-04-26T12:42:10.966Z,51.8996
2023-04-26T12:43:11.744Z,51.2282
2023-04-26T12:44:12.458Z,52.8261
2023-04-26T12:45:12.964Z,51.0679
2023-04-26T12:46:13.919Z,51.5753